Portada
METAR-TAF:

METAR-TAF

Aeroports :

Hermosillo, Mèxic

latitud: 29-04N, longitud: 110-57W, altitud: 211 m

Observació

L'informe es va fer fa 1 hora i 20 minuts, a les 06:40 UTC
Vent calma
Temperatura 28°C
Humitat 79%
Pressió 1012 hPa
Visibilitat: 16.1 km
Escasses núvols a una alçada de 20000 ft

METAR: MMHO 190640Z 00000KT 10SM FEW200 28/24 A2989 RMK 8/008 HZY

Hora: 01:00 (08:00 UTC)

Pronòstic

L'informe es va fer fa 3 hores i 52 minuts, a les 04:08 UTC
Pronòstic vàlid del 19 a les 06 UTC al 20 a les 06 UTC
Vent 5 kt del Oest/Sud-Oest
Visibilitat: 10 km
Cel clar
A partir de les 19 a les 1900 UTC
Vent 10 kt del Oest/Sud-Oest
Visibilitat: 10 km
Cel clar
A partir de les 20 a les 0300 UTC
Vent 5 kt del Oest/Sud-Oest
Visibilitat: 10 km
Cel clar

TAF: MMHO 190408Z 1906/2006 25005KT P6SM SKC FM191900 24010KT P6SM SKC FM200300 24005KT P6SM SKC

Observacions i pronòstics meteorològics de més de 4000 aeroports (METAR i TAF).

Les estacions disponibles són els punts grocs i vermells al mapa.

Posi el ratolí al punt desitjat per veure el nom de l'estació.

Feu clic per veure les observacions i els pronòstics meteorològics.

Per canviar el mapa: feu clic els botons verds amb una creu de color negre per apropar; al botó verd amb un guió per allunyar la imatge; o en les fletxes verdes per a mapes adjacents.


METAR-TAF: